Time;durP1;ratioP1;P1;durP2;ratioP2;P2;SDS_P1;SDS_P2;PMS_P1;PMS_P2;Temp;Humidity;BMP_temperature;BMP_pressure;BME280_temperature;BME280_humidity;BME280_pressure;Samples;Min_cycle;Max_cycle;Signal;HPM_P1;HPM_P2
2021/10/16 00:00:24;;;;;;;26.02;18.17;;;11.10;99.90;;;;;;5051632;28;20024;-84
2021/10/16 00:02:50;;;;;;;30.00;19.42;;;11.10;99.90;;;;;;5034339;28;20013;-85
2021/10/16 00:05:15;;;;;;;28.23;18.42;;;11.00;99.90;;;;;;5052341;28;20364;-87
2021/10/16 00:07:41;;;;;;;25.55;17.70;;;11.00;99.90;;;;;;5034096;28;20025;-85
2021/10/16 00:10:07;;;;;;;26.30;17.95;;;11.00;99.90;;;;;;5052118;28;20029;-87
2021/10/16 00:12:33;;;;;;;27.65;17.80;;;11.00;99.90;;;;;;5051592;28;20546;-85
2021/10/16 00:14:59;;;;;;;29.63;18.73;;;11.00;99.90;;;;;;5033333;28;20410;-85
2021/10/16 00:17:25;;;;;;;25.98;17.52;;;11.10;99.90;;;;;;5051953;28;20028;-86
2021/10/16 00:19:51;;;;;;;24.55;16.77;;;11.10;99.90;;;;;;5051276;28;20110;-85
2021/10/16 00:22:20;;;;;;;28.00;17.42;;;11.10;99.90;;;;;;5051447;28;20532;-85
2021/10/16 00:24:47;;;;;;;26.45;17.23;;;11.10;99.90;;;;;;5051691;28;20537;-86
2021/10/16 00:27:13;;;;;;;24.85;17.00;;;11.10;99.90;;;;;;5051419;28;20009;-86
2021/10/16 00:29:39;;;;;;;24.92;16.60;;;11.10;99.90;;;;;;5051294;28;20021;-85
2021/10/16 00:32:04;;;;;;;23.75;16.02;;;11.10;99.90;;;;;;5033452;28;20060;-85
2021/10/16 00:34:30;;;;;;;30.48;16.95;;;11.10;99.90;;;;;;5051445;28;20017;-86
2021/10/16 00:36:56;;;;;;;29.05;16.92;;;11.20;99.90;;;;;;5053760;28;20059;-86
2021/10/16 00:39:22;;;;;;;27.95;17.08;;;11.10;99.90;;;;;;5051418;28;20086;-86
2021/10/16 00:41:47;;;;;;;22.88;16.33;;;11.10;99.90;;;;;;5051049;28;20075;-85
2021/10/16 00:44:18;;;;;;;25.05;16.60;;;11.10;99.90;;;;;;5033132;28;20021;-86
2021/10/16 00:46:45;;;;;;;25.40;16.70;;;11.20;99.90;;;;;;5031168;28;20031;-86
2021/10/16 00:49:11;;;;;;;27.80;17.30;;;11.10;99.90;;;;;;5050904;28;20043;-86
2021/10/16 00:51:37;;;;;;;27.35;17.38;;;11.10;99.90;;;;;;5050670;28;20025;-85
2021/10/16 00:54:07;;;;;;;27.10;17.23;;;11.10;99.90;;;;;;5033378;28;20024;-86
2021/10/16 00:56:37;;;;;;;25.30;16.80;;;11.10;99.90;;;;;;5051011;28;20055;-85
2021/10/16 00:59:06;;;;;;;27.70;17.63;;;11.10;99.90;;;;;;5048448;28;20059;-86
2021/10/16 01:01:32;;;;;;;26.60;16.85;;;11.10;99.90;;;;;;5050542;28;20474;-86
2021/10/16 01:03:59;;;;;;;26.42;17.42;;;11.00;99.90;;;;;;5050302;28;20593;-86
2021/10/16 01:06:25;;;;;;;26.92;17.45;;;11.00;99.90;;;;;;5050279;28;20040;-86
2021/10/16 01:08:52;;;;;;;25.05;16.52;;;11.10;99.90;;;;;;5051109;28;20031;-86
2021/10/16 01:11:21;;;;;;;25.20;16.20;;;11.00;99.90;;;;;;5050563;28;20045;-86
2021/10/16 01:13:47;;;;;;;24.73;17.10;;;11.00;99.90;;;;;;5030359;28;20029;-85
2021/10/16 01:16:14;;;;;;;22.85;15.68;;;11.00;99.90;;;;;;5050603;28;20040;-85
2021/10/16 01:18:40;;;;;;;24.35;16.23;;;11.00;99.90;;;;;;5050442;28;20110;-86
2021/10/16 01:21:08;;;;;;;24.52;16.92;;;11.00;99.90;;;;;;5032540;28;20037;-85
2021/10/16 01:23:35;;;;;;;23.45;17.25;;;11.10;99.90;;;;;;5032810;28;20017;-86
2021/10/16 01:26:06;;;;;;;23.70;16.92;;;11.10;99.90;;;;;;5032243;28;20778;-84
2021/10/16 01:28:33;;;;;;;23.80;17.25;;;11.10;99.90;;;;;;5048721;28;20059;-86
2021/10/16 01:30:59;;;;;;;29.02;17.67;;;11.10;99.90;;;;;;5050318;28;20016;-85
2021/10/16 01:33:26;;;;;;;25.95;17.38;;;11.10;99.90;;;;;;5050208;28;20277;-86
2021/10/16 01:35:58;;;;;;;27.83;17.38;;;11.10;99.90;;;;;;5050497;28;20017;-86
2021/10/16 01:38:24;;;;;;;29.73;18.27;;;11.10;99.90;;;;;;5050079;28;20367;-86
2021/10/16 01:40:49;;;;;;;30.30;17.58;;;11.00;99.90;;;;;;5050217;28;20032;-86
2021/10/16 01:43:15;;;;;;;28.92;19.27;;;11.00;99.90;;;;;;5050305;28;20021;-84
2021/10/16 01:45:41;;;;;;;26.23;17.60;;;11.00;99.90;;;;;;5050349;28;20112;-85
2021/10/16 01:48:06;;;;;;;27.40;17.90;;;11.00;99.90;;;;;;5032406;28;20106;-84
2021/10/16 01:50:41;;;;;;;26.75;18.70;;;11.00;99.90;;;;;;5049920;28;20017;-84
2021/10/16 01:53:11;;;;;;;29.05;18.58;;;11.00;99.90;;;;;;5050324;28;20082;-85
2021/10/16 01:55:37;;;;;;;30.90;18.30;;;11.00;99.90;;;;;;5050252;28;20025;-85
2021/10/16 01:58:04;;;;;;;29.92;18.70;;;11.00;99.90;;;;;;5050177;28;20021;-85
2021/10/16 02:00:30;;;;;;;28.60;18.35;;;11.00;99.90;;;;;;5049617;28;20048;-84
2021/10/16 02:02:56;;;;;;;28.13;18.90;;;11.10;99.90;;;;;;5053883;28;20025;-85
2021/10/16 02:05:22;;;;;;;27.50;17.90;;;11.00;99.90;;;;;;5054206;28;20426;-84
2021/10/16 02:07:48;;;;;;;29.25;18.23;;;11.10;99.90;;;;;;5053890;28;20108;-85
2021/10/16 02:10:13;;;;;;;25.17;17.38;;;11.00;99.90;;;;;;5054120;28;20096;-85
2021/10/16 02:12:39;;;;;;;26.08;17.73;;;11.00;99.90;;;;;;5055006;28;20131;-84
2021/10/16 02:15:05;;;;;;;29.00;18.90;;;11.00;99.90;;;;;;5037703;28;20071;-85
2021/10/16 02:17:31;;;;;;;28.65;18.23;;;11.00;99.90;;;;;;5054803;28;20017;-84
2021/10/16 02:19:56;;;;;;;31.15;19.13;;;11.00;99.90;;;;;;5037577;28;20036;-84
2021/10/16 02:22:22;;;;;;;31.15;19.83;;;10.90;99.90;;;;;;5055025;28;20494;-85
2021/10/16 02:24:48;;;;;;;31.05;19.63;;;10.90;99.90;;;;;;5053707;28;20013;-84
2021/10/16 02:27:14;;;;;;;27.90;19.48;;;10.90;99.90;;;;;;5053844;28;21079;-85
2021/10/16 02:29:40;;;;;;;31.45;19.40;;;10.90;99.90;;;;;;5056178;28;20071;-85
2021/10/16 02:32:06;;;;;;;29.20;18.58;;;10.90;99.90;;;;;;5053791;28;20433;-84
2021/10/16 02:34:32;;;;;;;30.55;20.13;;;10.90;99.90;;;;;;5053101;28;20041;-85
2021/10/16 02:36:58;;;;;;;30.38;20.15;;;10.90;99.90;;;;;;5035680;28;20028;-85
2021/10/16 02:39:24;;;;;;;29.40;19.42;;;10.90;99.90;;;;;;5053375;28;20039;-85
2021/10/16 02:41:50;;;;;;;32.17;19.13;;;10.80;99.90;;;;;;5035144;28;20025;-84
2021/10/16 02:44:16;;;;;;;28.98;18.20;;;10.80;99.90;;;;;;5035447;28;20021;-85
2021/10/16 02:46:42;;;;;;;30.25;19.85;;;10.80;99.90;;;;;;5053526;28;20052;-85
2021/10/16 02:49:07;;;;;;;29.63;18.33;;;10.80;99.90;;;;;;5053220;28;20591;-84
2021/10/16 02:51:33;;;;;;;32.10;20.02;;;10.90;99.90;;;;;;5052958;28;20034;-85
2021/10/16 02:54:02;;;;;;;29.83;18.75;;;10.90;99.90;;;;;;5035251;28;20386;-84
2021/10/16 02:56:27;;;;;;;30.67;19.58;;;10.90;99.90;;;;;;5052978;28;20032;-84
2021/10/16 02:58:53;;;;;;;31.77;20.50;;;10.90;99.90;;;;;;5053184;28;20394;-85
2021/10/16 03:01:19;;;;;;;32.35;19.48;;;10.90;99.90;;;;;;5052691;28;20112;-85
2021/10/16 03:03:44;;;;;;;36.53;18.77;;;10.90;99.90;;;;;;5053184;28;20017;-85
2021/10/16 03:06:10;;;;;;;27.70;17.67;;;10.90;99.90;;;;;;5052790;28;20029;-86
2021/10/16 03:08:36;;;;;;;28.02;16.90;;;10.90;99.90;;;;;;5053057;28;20052;-85
2021/10/16 03:11:01;;;;;;;27.33;17.70;;;10.80;99.90;;;;;;5052539;28;20033;-85
2021/10/16 03:13:32;;;;;;;25.00;17.75;;;10.80;99.90;;;;;;5052212;28;20033;-85
2021/10/16 03:15:59;;;;;;;28.60;18.30;;;10.80;99.90;;;;;;5030878;28;20037;-86
2021/10/16 03:18:25;;;;;;;31.75;19.48;;;10.80;99.90;;;;;;5047459;28;21980;-86
2021/10/16 03:20:50;;;;;;;29.25;19.10;;;10.80;99.90;;;;;;5052479;28;20159;-85
2021/10/16 03:23:16;;;;;;;27.80;18.00;;;10.70;99.90;;;;;;5052606;28;20379;-85
2021/10/16 03:25:42;;;;;;;27.52;17.63;;;10.70;99.90;;;;;;5052289;28;20013;-86
2021/10/16 03:28:08;;;;;;;23.02;15.98;;;10.70;99.90;;;;;;5052652;28;20040;-85
2021/10/16 03:30:34;;;;;;;27.13;16.83;;;10.70;99.90;;;;;;5052614;28;20024;-86
2021/10/16 03:32:59;;;;;;;28.60;17.98;;;10.80;99.90;;;;;;5052192;28;20028;-86
2021/10/16 03:35:25;;;;;;;27.85;16.50;;;10.70;99.90;;;;;;5052448;28;20025;-86
2021/10/16 03:37:51;;;;;;;25.98;17.17;;;10.70;99.90;;;;;;5052450;28;20044;-84
2021/10/16 03:40:17;;;;;;;26.45;16.85;;;10.70;99.90;;;;;;5052245;28;20095;-85
2021/10/16 03:42:42;;;;;;;25.05;16.30;;;10.70;99.90;;;;;;5034429;28;20027;-86
2021/10/16 03:45:11;;;;;;;28.52;17.05;;;10.70;99.90;;;;;;5052105;28;20028;-85
2021/10/16 03:47:37;;;;;;;25.65;17.00;;;10.70;99.90;;;;;;5052355;28;20017;-85
2021/10/16 03:50:03;;;;;;;27.20;17.38;;;10.70;99.90;;;;;;5052217;28;20032;-86
2021/10/16 03:52:29;;;;;;;28.98;17.15;;;10.70;99.90;;;;;;5052035;28;20024;-85
2021/10/16 03:54:54;;;;;;;23.08;16.77;;;10.70;99.90;;;;;;5034236;28;20029;-84
2021/10/16 03:57:20;;;;;;;26.33;16.50;;;10.70;99.90;;;;;;5051745;28;20025;-85
2021/10/16 03:59:46;;;;;;;24.70;15.60;;;10.70;99.90;;;;;;5034061;28;20052;-85
2021/10/16 04:02:12;;;;;;;28.50;18.45;;;10.70;99.90;;;;;;5051993;28;20025;-85
2021/10/16 04:04:38;;;;;;;24.88;17.30;;;10.60;99.90;;;;;;5051824;28;20025;-86
2021/10/16 04:07:03;;;;;;;26.85;17.20;;;10.60;99.90;;;;;;5051637;28;20025;-85
2021/10/16 04:09:29;;;;;;;26.02;16.55;;;10.60;99.90;;;;;;5051641;28;20025;-85
2021/10/16 04:11:55;;;;;;;27.30;17.10;;;10.60;99.90;;;;;;5035565;28;20042;-85
2021/10/16 04:14:20;;;;;;;25.55;16.13;;;10.60;99.90;;;;;;5020281;28;20544;-86
2021/10/16 04:16:47;;;;;;;23.65;15.80;;;10.50;99.90;;;;;;5022256;28;20017;-86
2021/10/16 04:19:12;;;;;;;23.83;15.48;;;10.50;99.90;;;;;;5020914;28;20129;-87
2021/10/16 04:21:38;;;;;;;26.77;16.75;;;10.50;99.90;;;;;;5020416;28;20096;-85
2021/10/16 04:24:04;;;;;;;22.80;15.68;;;10.50;99.90;;;;;;5019997;28;20056;-86
2021/10/16 04:26:30;;;;;;;27.17;16.02;;;10.50;99.90;;;;;;5020913;28;20025;-86
2021/10/16 04:28:56;;;;;;;26.63;16.00;;;10.50;99.90;;;;;;5022053;28;20425;-85
2021/10/16 04:31:22;;;;;;;24.38;15.70;;;10.50;99.90;;;;;;5020522;28;20018;-86
2021/10/16 04:33:47;;;;;;;25.83;15.98;;;10.50;99.90;;;;;;5022441;28;20138;-85
2021/10/16 04:36:13;;;;;;;22.80;15.93;;;10.50;99.90;;;;;;5018353;28;20115;-85
2021/10/16 04:38:44;;;;;;;25.63;15.50;;;10.50;99.90;;;;;;5019387;28;20382;-85
2021/10/16 04:41:10;;;;;;;23.15;14.82;;;10.50;99.90;;;;;;5014735;28;20507;-86
2021/10/16 04:43:41;;;;;;;20.63;13.95;;;10.50;99.90;;;;;;5022401;28;20096;-86
2021/10/16 04:46:13;;;;;;;23.08;13.75;;;10.50;99.90;;;;;;5015261;28;20492;-85
2021/10/16 04:48:45;;;;;;;19.58;14.15;;;10.50;99.90;;;;;;5015612;28;20145;-85
2021/10/16 04:51:12;;;;;;;20.95;14.23;;;10.50;99.90;;;;;;5022457;28;20029;-86
2021/10/16 04:53:39;;;;;;;20.02;12.77;;;10.50;99.90;;;;;;5016671;28;20120;-84
2021/10/16 04:56:05;;;;;;;21.05;13.27;;;10.50;99.90;;;;;;5021115;28;20026;-84
2021/10/16 04:58:31;;;;;;;19.83;13.20;;;10.50;99.90;;;;;;5021307;28;20376;-84
2021/10/16 05:00:57;;;;;;;20.02;12.40;;;10.50;99.90;;;;;;5018586;28;20022;-84
2021/10/16 05:03:22;;;;;;;19.42;12.77;;;10.50;99.90;;;;;;5021113;28;20132;-84
2021/10/16 05:05:48;;;;;;;18.77;12.85;;;10.50;99.90;;;;;;5020067;28;20456;-84
2021/10/16 05:08:17;;;;;;;19.13;12.73;;;10.50;99.90;;;;;;5019250;28;20036;-84
2021/10/16 05:10:43;;;;;;;22.67;12.80;;;10.60;99.90;;;;;;5022468;28;20016;-85
2021/10/16 05:13:09;;;;;;;22.23;13.23;;;10.60;99.90;;;;;;5050725;28;20024;-84
2021/10/16 05:15:34;;;;;;;18.67;12.65;;;10.60;99.90;;;;;;5050707;28;20501;-85
2021/10/16 05:18:00;;;;;;;18.35;12.68;;;10.60;99.90;;;;;;5050371;28;20039;-84
2021/10/16 05:20:26;;;;;;;20.17;12.60;;;10.60;99.90;;;;;;5050222;28;20032;-84
2021/10/16 05:22:52;;;;;;;18.67;12.38;;;10.50;99.90;;;;;;5049398;28;20362;-84
2021/10/16 05:25:18;;;;;;;18.83;11.65;;;10.50;99.90;;;;;;5047826;28;20024;-85
2021/10/16 05:27:44;;;;;;;19.15;12.15;;;10.50;99.90;;;;;;5050638;28;20024;-85
2021/10/16 05:30:10;;;;;;;17.05;11.05;;;10.50;99.90;;;;;;5050595;28;20025;-84
2021/10/16 05:32:39;;;;;;;17.35;11.00;;;10.50;99.90;;;;;;5050107;28;20078;-86
2021/10/16 05:35:05;;;;;;;17.13;10.98;;;10.50;99.90;;;;;;5047672;28;20494;-86
2021/10/16 05:37:31;;;;;;;17.35;11.77;;;10.50;99.90;;;;;;5050052;28;20025;-86
2021/10/16 05:39:57;;;;;;;18.75;11.38;;;10.50;99.90;;;;;;5032636;28;20108;-84
2021/10/16 05:42:22;;;;;;;17.02;11.43;;;10.50;99.90;;;;;;5050813;28;20017;-85
2021/10/16 05:44:48;;;;;;;18.02;11.70;;;10.50;99.90;;;;;;5050709;28;20040;-76
2021/10/16 05:47:15;;;;;;;16.55;11.45;;;10.50;99.90;;;;;;5051916;28;20391;-75
2021/10/16 05:49:41;;;;;;;17.15;10.57;;;10.40;99.90;;;;;;5052401;28;20178;-75
2021/10/16 05:52:07;;;;;;;16.38;11.13;;;10.40;99.90;;;;;;5032699;28;20533;-76
2021/10/16 05:54:33;;;;;;;16.75;11.27;;;10.40;99.90;;;;;;5050356;28;20028;-76
2021/10/16 05:56:58;;;;;;;15.68;10.88;;;10.40;99.90;;;;;;5050439;28;20017;-76
2021/10/16 05:59:24;;;;;;;15.02;11.23;;;10.50;99.90;;;;;;5032053;28;20028;-76
2021/10/16 06:01:50;;;;;;;17.55;10.65;;;10.40;99.90;;;;;;5049750;28;20385;-76
2021/10/16 06:04:16;;;;;;;18.83;10.82;;;10.50;99.90;;;;;;5032233;28;20017;-75
2021/10/16 06:06:41;;;;;;;21.50;11.43;;;10.40;99.90;;;;;;5049694;28;20024;-76
2021/10/16 06:09:07;;;;;;;18.52;11.50;;;10.50;99.90;;;;;;5032191;28;20029;-76
2021/10/16 06:11:33;;;;;;;14.52;10.38;;;10.40;99.90;;;;;;5032175;28;20091;-76
2021/10/16 06:13:58;;;;;;;15.27;10.43;;;10.50;99.90;;;;;;5050068;28;20025;-75
2021/10/16 06:16:24;;;;;;;17.88;10.20;;;10.50;99.90;;;;;;5032214;28;20029;-76
2021/10/16 06:18:50;;;;;;;17.60;10.20;;;10.60;99.90;;;;;;5033263;28;20398;-75
2021/10/16 06:21:16;;;;;;;13.40;9.32;;;10.60;99.90;;;;;;5032935;28;20017;-84
2021/10/16 06:23:42;;;;;;;12.73;9.13;;;10.60;99.90;;;;;;5050044;28;20108;-84
2021/10/16 06:26:08;;;;;;;13.45;9.45;;;10.60;99.90;;;;;;5050673;28;20573;-85
2021/10/16 06:28:34;;;;;;;12.90;9.02;;;10.60;99.90;;;;;;5051006;28;20029;-85
2021/10/16 06:30:59;;;;;;;14.73;8.80;;;10.60;99.90;;;;;;5032627;28;20025;-84
2021/10/16 06:33:25;;;;;;;12.68;8.40;;;10.70;99.90;;;;;;5050623;28;20032;-84
2021/10/16 06:35:52;;;;;;;13.65;9.07;;;10.70;99.90;;;;;;5050597;28;20052;-86
2021/10/16 06:38:18;;;;;;;14.15;9.32;;;10.80;99.90;;;;;;5054261;28;20673;-85
2021/10/16 06:40:44;;;;;;;16.30;10.85;;;10.80;99.90;;;;;;5050832;28;20021;-85
2021/10/16 06:43:10;;;;;;;14.15;10.32;;;10.90;99.90;;;;;;5033298;28;20366;-84
2021/10/16 06:45:36;;;;;;;16.75;10.27;;;10.90;99.90;;;;;;5032514;28;20256;-85
2021/10/16 06:48:02;;;;;;;17.88;10.55;;;10.90;99.90;;;;;;5051514;28;20586;-85
2021/10/16 06:50:28;;;;;;;14.82;9.98;;;10.90;99.90;;;;;;5053946;28;20025;-85
2021/10/16 06:52:54;;;;;;;20.98;11.68;;;11.00;99.90;;;;;;5054303;28;20113;-85
2021/10/16 06:55:20;;;;;;;29.73;18.00;;;11.00;99.90;;;;;;5036241;28;20507;-85
2021/10/16 06:57:45;;;;;;;33.45;19.92;;;11.00;99.90;;;;;;5035702;28;20017;-84
2021/10/16 07:00:11;;;;;;;34.22;19.63;;;11.00;99.90;;;;;;5052971;28;20033;-84
2021/10/16 07:02:37;;;;;;;33.67;18.70;;;11.00;99.90;;;;;;5050722;28;20025;-84
2021/10/16 07:05:04;;;;;;;31.58;17.10;;;11.10;99.90;;;;;;5053409;28;20025;-84
2021/10/16 07:07:29;;;;;;;29.55;18.05;;;11.10;99.90;;;;;;5035310;28;20021;-84
2021/10/16 07:09:55;;;;;;;27.52;16.13;;;11.10;99.90;;;;;;5053311;28;20618;-84
2021/10/16 07:12:22;;;;;;;29.70;17.48;;;11.10;99.90;;;;;;5053264;28;20383;-85
2021/10/16 07:14:48;;;;;;;22.75;13.98;;;11.30;99.90;;;;;;5052877;28;20107;-84
2021/10/16 07:17:14;;;;;;;23.70;13.65;;;11.30;99.90;;;;;;5053152;28;20155;-84
2021/10/16 07:19:40;;;;;;;21.63;12.80;;;11.40;99.90;;;;;;5050008;28;20116;-85
2021/10/16 07:22:09;;;;;;;19.17;13.07;;;11.40;99.90;;;;;;5052813;28;20067;-84
2021/10/16 07:24:38;;;;;;;25.38;14.57;;;11.40;99.90;;;;;;5051217;28;20013;-85
2021/10/16 07:27:04;;;;;;;31.65;17.08;;;11.40;99.90;;;;;;5049421;28;20174;-84
2021/10/16 07:29:29;;;;;;;30.77;19.88;;;11.40;99.90;;;;;;5054942;28;20132;-84
2021/10/16 07:31:55;;;;;;;28.50;17.55;;;11.50;99.90;;;;;;5054735;28;20028;-84
2021/10/16 07:34:21;;;;;;;27.85;17.92;;;11.50;99.90;;;;;;5036707;28;20024;-84
2021/10/16 07:36:47;;;;;;;27.33;16.60;;;11.50;99.90;;;;;;5054042;28;20020;-84
2021/10/16 07:39:14;;;;;;;27.33;17.85;;;11.50;99.90;;;;;;5055544;28;20486;-84
2021/10/16 07:41:41;;;;;;;29.15;15.77;;;11.60;99.90;;;;;;5051348;28;20045;-83
2021/10/16 07:44:07;;;;;;;28.08;15.75;;;11.60;99.90;;;;;;5033464;28;20025;-83
2021/10/16 07:46:34;;;;;;;28.08;17.05;;;11.60;99.90;;;;;;5052242;28;20512;-82
2021/10/16 07:49:00;;;;;;;30.30;16.73;;;11.60;99.90;;;;;;5033543;28;20024;-83
2021/10/16 07:51:26;;;;;;;29.88;18.23;;;11.60;99.90;;;;;;5051885;28;20063;-83
2021/10/16 07:53:52;;;;;;;27.40;17.73;;;11.70;99.90;;;;;;5050038;28;20632;-83
2021/10/16 07:56:18;;;;;;;33.13;17.55;;;11.70;99.90;;;;;;5049189;28;20033;-75
2021/10/16 07:58:43;;;;;;;28.30;16.95;;;11.70;99.90;;;;;;5050571;28;20098;-75
2021/10/16 08:01:10;;;;;;;28.58;15.88;;;11.80;99.90;;;;;;5032162;28;20033;-83
2021/10/16 08:03:36;;;;;;;31.60;17.95;;;11.80;99.90;;;;;;5052376;28;20644;-85
2021/10/16 08:06:03;;;;;;;27.63;16.80;;;11.90;99.90;;;;;;5026990;28;20022;-75
2021/10/16 08:08:29;;;;;;;28.23;17.65;;;11.90;99.90;;;;;;5047549;28;20020;-75
2021/10/16 08:10:55;;;;;;;28.95;17.35;;;12.00;99.90;;;;;;5046631;28;20386;-76
2021/10/16 08:13:21;;;;;;;31.02;17.52;;;12.00;99.90;;;;;;5049762;28;20092;-75
2021/10/16 08:15:47;;;;;;;23.35;14.43;;;12.10;99.90;;;;;;5032193;28;20116;-75
2021/10/16 08:18:13;;;;;;;28.92;16.15;;;12.20;99.90;;;;;;5032553;28;20540;-76
2021/10/16 08:20:39;;;;;;;29.55;18.05;;;12.20;99.90;;;;;;5049511;28;20474;-76
2021/10/16 08:23:07;;;;;;;28.05;16.92;;;12.30;99.90;;;;;;5031747;28;20025;-83
2021/10/16 08:25:33;;;;;;;34.80;18.95;;;12.40;99.90;;;;;;5033266;28;20056;-83
2021/10/16 08:27:59;;;;;;;26.70;17.25;;;12.40;99.90;;;;;;5050886;28;20082;-84
2021/10/16 08:30:25;;;;;;;38.15;19.85;;;12.50;99.90;;;;;;5050660;28;20036;-83
2021/10/16 08:32:51;;;;;;;34.47;19.42;;;12.50;99.90;;;;;;5050946;28;20029;-83
2021/10/16 08:35:17;;;;;;;37.70;20.90;;;12.60;99.90;;;;;;5050150;28;20055;-83
2021/10/16 08:37:43;;;;;;;39.88;22.05;;;12.60;99.90;;;;;;5050617;28;20017;-83
2021/10/16 08:40:09;;;;;;;38.35;22.58;;;12.60;99.90;;;;;;5050011;28;20037;-84
2021/10/16 08:42:35;;;;;;;42.47;22.02;;;12.60;99.90;;;;;;5050725;28;20024;-84
2021/10/16 08:45:03;;;;;;;39.22;22.48;;;12.70;99.90;;;;;;5051108;28;20701;-84
2021/10/16 08:47:33;;;;;;;46.42;24.85;;;12.70;99.90;;;;;;5049998;28;20484;-84
2021/10/16 08:50:00;;;;;;;41.65;23.80;;;12.90;99.90;;;;;;5046591;28;20025;-76
2021/10/16 08:52:27;;;;;;;43.28;23.60;;;13.00;99.90;;;;;;5047625;28;20090;-76
2021/10/16 08:54:53;;;;;;;38.15;22.33;;;13.20;99.90;;;;;;5046336;28;20017;-76
2021/10/16 08:57:20;;;;;;;41.92;22.33;;;13.30;99.90;;;;;;5047737;28;20040;-76
2021/10/16 08:59:46;;;;;;;39.33;22.85;;;13.30;99.90;;;;;;5047996;28;20056;-76
2021/10/16 09:02:12;;;;;;;41.58;24.13;;;13.50;99.90;;;;;;5046417;28;20025;-76
2021/10/16 09:04:38;;;;;;;39.47;23.38;;;13.50;99.90;;;;;;5048536;28;20040;-76
2021/10/16 09:07:24;;;;;;;37.53;21.95;;;13.50;99.90;;;;;;5048101;28;20048;-76
2021/10/16 09:09:51;;;;;;;39.17;23.02;;;13.50;99.90;;;;;;5046451;28;20017;-76
2021/10/16 09:12:18;;;;;;;41.78;22.67;;;13.50;99.90;;;;;;5027737;28;20132;-76
2021/10/16 09:14:49;;;;;;;46.65;23.38;;;13.60;99.90;;;;;;5027312;28;20088;-76
2021/10/16 09:17:16;;;;;;;46.00;23.23;;;13.70;99.90;;;;;;5042401;28;20367;-76
2021/10/16 09:19:43;;;;;;;45.53;28.88;;;13.70;99.90;;;;;;5043791;28;20052;-76
2021/10/16 09:22:10;;;;;;;40.80;23.60;;;13.80;99.90;;;;;;5045711;28;20083;-76
2021/10/16 09:24:46;;;;;;;42.65;23.48;;;14.00;99.90;;;;;;5043803;28;20032;-76
2021/10/16 09:27:22;;;;;;;40.53;22.13;;;13.90;99.90;;;;;;5049856;28;20063;-76
2021/10/16 09:29:53;;;;;;;37.17;21.73;;;13.90;99.90;;;;;;5051546;28;20031;-76
2021/10/16 09:32:23;;;;;;;38.25;21.90;;;14.00;99.90;;;;;;5032358;28;20124;-84
2021/10/16 09:34:49;;;;;;;35.20;20.70;;;14.00;99.90;;;;;;5045542;28;20025;-84
2021/10/16 09:37:20;;;;;;;44.78;21.02;;;14.00;99.90;;;;;;5026741;28;20033;-84
2021/10/16 09:39:49;;;;;;;34.70;20.45;;;14.00;99.90;;;;;;5048690;28;20163;-84
2021/10/16 09:42:43;;;;;;;41.00;20.98;;;14.00;99.90;;;;;;5048785;28;20875;-77
2021/10/16 09:45:15;;;;;;;40.22;22.02;;;14.00;99.90;;;;;;5045247;28;20029;-76
2021/10/16 09:47:54;;;;;;;;;;;14.00;99.90;;;;;;5049861;28;20021;-84
2021/10/16 09:50:20;;;;;;;37.00;21.80;;;14.10;99.90;;;;;;5031688;28;19944;-83
2021/10/16 09:52:48;;;;;;;43.83;22.63;;;14.10;99.90;;;;;;5049303;28;20517;-83
2021/10/16 09:55:14;;;;;;;37.92;20.58;;;14.30;99.90;;;;;;5030590;28;20074;-84
2021/10/16 09:57:41;;;;;;;69.80;32.95;;;14.40;99.90;;;;;;5037710;28;20033;-84
2021/10/16 10:00:08;;;;;;;37.58;21.50;;;14.50;99.90;;;;;;5048683;28;20425;-84
2021/10/16 10:02:34;;;;;;;70.30;31.60;;;14.50;99.90;;;;;;5043115;28;20077;-83
2021/10/16 10:05:06;;;;;;;64.07;28.35;;;14.50;99.90;;;;;;5047390;28;20047;-85
2021/10/16 10:07:36;;;;;;;48.72;24.17;;;14.70;99.90;;;;;;5049879;28;20032;-75
2021/10/16 10:10:04;;;;;;;49.28;23.83;;;14.70;99.90;;;;;;5042814;28;20021;-85
2021/10/16 10:12:29;;;;;;;47.33;23.10;;;14.60;99.90;;;;;;5044872;28;20568;-76
2021/10/16 10:14:56;;;;;;;35.60;19.20;;;14.60;99.90;;;;;;5050740;28;20293;-85
2021/10/16 10:17:36;;;;;;;47.92;22.73;;;14.80;99.90;;;;;;5049031;28;20029;-89
2021/10/16 10:20:06;;;;;;;44.42;20.92;;;14.80;99.90;;;;;;5048803;28;20029;-84
2021/10/16 10:22:34;;;;;;;38.67;21.10;;;14.90;99.90;;;;;;5043417;28;20033;-76
2021/10/16 10:25:12;;;;;;;36.65;21.60;;;14.90;99.90;;;;;;5051825;28;20072;-76
2021/10/16 10:27:43;;;;;;;42.63;20.15;;;14.90;99.90;;;;;;5054091;28;20021;-76
2021/10/16 10:30:35;;;;;;;36.85;20.58;;;14.90;99.90;;;;;;5055271;28;20479;-76
2021/10/16 10:33:16;;;;;;;40.30;21.27;;;14.90;99.90;;;;;;5053567;28;20090;-76
2021/10/16 10:36:00;;;;;;;32.15;19.67;;;15.00;99.90;;;;;;5054205;28;20394;-76
2021/10/16 10:38:33;;;;;;;40.05;21.10;;;15.10;99.90;;;;;;5054516;28;20029;-76
2021/10/16 10:41:25;;;;;;;37.22;20.05;;;15.20;99.90;;;;;;5053389;28;20013;-76
2021/10/16 10:43:57;;;;;;;41.20;22.45;;;15.10;99.90;;;;;;5030226;28;20024;-76
2021/10/16 10:46:27;;;;;;;;;;;15.00;99.90;;;;;;5054108;28;20280;-85
2021/10/16 10:48:53;;;;;;;40.10;20.00;;;15.00;99.90;;;;;;5048420;28;20354;-85
2021/10/16 10:51:28;;;;;;;38.13;19.67;;;15.00;99.90;;;;;;5035558;28;20029;-85
2021/10/16 10:54:15;;;;;;;39.05;20.38;;;15.00;99.90;;;;;;5051007;28;20025;-85
2021/10/16 10:56:45;;;;;;;38.25;21.95;;;15.00;99.90;;;;;;5052007;28;20028;-85
2021/10/16 10:59:14;;;;;;;40.00;21.02;;;15.20;99.90;;;;;;5052973;28;20048;-85
2021/10/16 11:01:51;;;;;;;38.75;21.30;;;15.10;99.90;;;;;;5053120;28;20021;-85
2021/10/16 11:04:32;;;;;;;35.95;20.75;;;15.30;99.90;;;;;;5050937;28;20025;-85
2021/10/16 11:07:01;;;;;;;42.72;21.63;;;15.50;99.90;;;;;;5033070;28;20227;-85
2021/10/16 11:09:26;;;;;;;37.05;20.63;;;15.50;99.90;;;;;;5035278;28;20029;-85
2021/10/16 11:11:52;;;;;;;41.72;21.77;;;15.50;99.90;;;;;;5034780;28;20438;-85
2021/10/16 11:14:18;;;;;;;35.20;20.42;;;15.50;99.90;;;;;;5052867;28;20518;-85
2021/10/16 11:16:59;;;;;;;36.72;19.63;;;15.60;99.90;;;;;;5052677;28;20421;-85
2021/10/16 11:19:25;;;;;;;39.90;20.58;;;15.60;99.90;;;;;;5050093;28;20024;-85
2021/10/16 11:21:57;;;;;;;35.35;20.05;;;15.70;99.90;;;;;;5052745;28;20059;-85
2021/10/16 11:24:25;;;;;;;37.20;19.23;;;15.80;99.90;;;;;;5052634;28;20075;-85
2021/10/16 11:26:56;;;;;;;33.63;18.23;;;15.80;99.90;;;;;;5034684;28;20036;-85
2021/10/16 11:29:32;;;;;;;45.78;20.90;;;15.90;99.90;;;;;;5052485;28;20032;-85
2021/10/16 11:32:11;;;;;;;34.22;18.58;;;15.80;99.90;;;;;;5049846;28;20021;-86
2021/10/16 11:34:36;;;;;;;32.58;17.77;;;15.80;99.90;;;;;;5051825;28;20021;-84
2021/10/16 11:37:03;;;;;;;29.17;15.55;;;15.90;99.90;;;;;;5034497;28;20508;-83
2021/10/16 11:39:29;;;;;;;27.10;16.13;;;15.90;99.90;;;;;;5034231;28;20047;-84
2021/10/16 11:41:56;;;;;;;28.33;15.38;;;16.00;99.90;;;;;;5052272;28;20013;-85
2021/10/16 11:44:22;;;;;;;24.10;13.10;;;16.00;99.60;;;;;;5052040;28;20014;-85
2021/10/16 11:47:04;;;;;;;23.98;12.63;;;16.10;98.50;;;;;;5052354;28;20413;-84
2021/10/16 11:49:30;;;;;;;20.67;11.85;;;16.30;98.70;;;;;;5050901;28;20104;-85
2021/10/16 11:51:56;;;;;;;16.08;9.40;;;16.30;97.80;;;;;;5034293;28;20029;-85
2021/10/16 11:54:23;;;;;;;17.50;11.48;;;16.20;97.80;;;;;;5052127;28;20108;-85
2021/10/16 11:56:58;;;;;;;19.45;10.13;;;16.20;98.00;;;;;;5052788;28;20028;-85
2021/10/16 11:59:24;;;;;;;14.20;8.13;;;16.30;97.30;;;;;;5029894;28;20367;-85
2021/10/16 12:01:50;;;;;;;15.93;7.40;;;16.40;98.00;;;;;;5033154;28;20029;-84
2021/10/16 12:04:16;;;;;;;16.80;6.65;;;16.40;97.70;;;;;;5051407;28;20406;-84
2021/10/16 12:06:42;;;;;;;8.80;5.63;;;16.40;97.20;;;;;;5033937;28;20104;-85
2021/10/16 12:09:12;;;;;;;7.68;5.75;;;16.50;96.30;;;;;;5033949;28;20091;-85
2021/10/16 12:11:39;;;;;;;6.57;4.10;;;16.50;94.50;;;;;;5051725;28;20040;-85
2021/10/16 12:14:06;;;;;;;4.90;4.22;;;16.60;93.40;;;;;;5048949;28;20423;-85
2021/10/16 12:16:45;;;;;;;3.97;3.58;;;16.60;93.20;;;;;;5052051;28;20021;-85
2021/10/16 12:19:15;;;;;;;6.35;3.85;;;16.50;92.10;;;;;;5031378;28;20063;-85
2021/10/16 12:21:48;;;;;;;5.38;3.65;;;16.50;93.60;;;;;;5049634;28;20039;-85
2021/10/16 12:24:23;;;;;;;5.05;3.28;;;16.50;92.50;;;;;;5031823;28;20024;-85
2021/10/16 12:27:04;;;;;;;3.67;3.17;;;16.40;93.10;;;;;;5047402;28;20386;-85
2021/10/16 12:29:32;;;;;;;8.93;5.43;;;16.50;92.90;;;;;;5047264;28;20013;-85